TimeEDT,TemperatureF,Dew PointF,Humidity,Sea Level PressureIn,VisibilityMPH,Wind Direction,Wind SpeedMPH,Gust SpeedMPH,PrecipitationIn,Events,Conditions,WindDirDegrees,DateUTC
12:26 AM,66.2,60.8,83,30.16,10.0,ENE,8.1,-,0.00,Rain,Light Rain,60,2012-09-28 04:26:00
12:51 AM,66.9,61.0,81,30.16,10.0,NE,9.2,-,0.00,Rain,Light Rain,50,2012-09-28 04:51:00
1:46 AM,64.4,60.8,88,30.14,10.0,ENE,11.5,-,0.00,Rain,Light Rain,70,2012-09-28 05:46:00
1:51 AM,64.9,61.0,87,30.14,10.0,ENE,9.2,-,0.00,Rain,Light Rain,70,2012-09-28 05:51:00
2:49 AM,66.2,62.6,88,30.12,10.0,East,6.9,-,N/A,,Overcast,80,2012-09-28 06:49:00
2:51 AM,66.0,63.0,90,30.12,10.0,East,5.8,-,N/A,,Overcast,80,2012-09-28 06:51:00
3:51 AM,66.0,64.0,93,30.12,3.0,NNE,4.6,-,0.08,Rain,Heavy Rain,30,2012-09-28 07:51:00
4:01 AM,66.2,64.4,94,30.10,2.5,East,13.8,-,0.07,Rain,Heavy Rain,80,2012-09-28 08:01:00
4:14 AM,66.2,64.4,94,30.10,3.0,ESE,11.5,-,0.28,Rain,Rain,120,2012-09-28 08:14:00
4:51 AM,66.0,64.0,93,30.11,10.0,SE,10.4,-,0.29,,Overcast,130,2012-09-28 08:51:00
5:28 AM,66.2,64.4,94,30.10,10.0,SE,9.2,-,0.00,Rain,Light Rain,130,2012-09-28 09:28:00
5:51 AM,66.0,64.0,93,30.09,10.0,ESE,13.8,-,0.00,,Overcast,120,2012-09-28 09:51:00
6:51 AM,66.9,64.0,90,30.08,10.0,ESE,11.5,-,0.01,,Overcast,110,2012-09-28 10:51:00
7:51 AM,66.2,64.4,94,30.08,10.0,East,9.2,-,N/A,,Overcast,100,2012-09-28 11:51:00
8:19 AM,68.0,64.4,88,30.06,4.0,ENE,9.2,-,0.00,Rain,Light Rain,70,2012-09-28 12:19:00
8:49 AM,68.0,64.4,88,30.04,2.5,ESE,13.8,-,0.07,Rain,Light Rain,110,2012-09-28 12:49:00
8:51 AM,68.0,64.9,90,30.05,2.5,ESE,11.5,-,0.08,Rain,Light Rain,120,2012-09-28 12:51:00
9:39 AM,69.8,64.4,83,30.05,3.0,SE,11.5,20.7,0.15,Rain,Light Rain,140,2012-09-28 13:39:00
9:51 AM,68.0,64.9,90,30.05,3.0,ENE,11.5,19.6,0.20,Rain,Light Rain,70,2012-09-28 13:51:00
10:14 AM,68.0,64.4,88,30.04,2.5,NNW,8.1,-,0.06,Rain,Heavy Rain,340,2012-09-28 14:14:00
10:25 AM,66.2,64.4,94,30.03,2.5,Variable,6.9,21.9,0.18,Rain,Light Rain,0,2012-09-28 14:25:00
10:48 AM,64.4,64.4,100,30.03,3.0,North,10.4,23.0,N/A,Rain,Heavy Rain,10,2012-09-28 14:48:00
10:51 AM,64.9,64.0,97,30.03,3.0,NW,16.1,23.0,0.55,Rain,Light Rain,320,2012-09-28 14:51:00
11:51 AM,68.0,64.9,90,30.02,7.0,NE,3.5,-,0.01,Rain,Light Rain,50,2012-09-28 15:51:00
12:12 PM,68.0,64.4,88,30.02,9.0,NE,10.4,18.4,0.04,Rain,Light Rain,50,2012-09-28 16:12:00
12:51 PM,66.9,64.9,93,30.01,10.0,NE,12.7,-,0.10,,Overcast,40,2012-09-28 16:51:00
1:41 PM,66.2,64.4,94,29.98,10.0,NE,15.0,-,N/A,,Overcast,40,2012-09-28 17:41:00
1:51 PM,66.9,64.0,90,29.97,10.0,NE,13.8,-,N/A,,Overcast,50,2012-09-28 17:51:00
2:48 PM,66.2,64.4,94,29.96,10.0,NE,12.7,-,0.00,Rain,Light Rain,40,2012-09-28 18:48:00
2:51 PM,66.2,64.4,94,29.96,10.0,NE,11.5,-,N/A,Rain,Light Rain,40,2012-09-28 18:51:00
3:10 PM,66.2,64.4,94,29.96,10.0,NNE,11.5,-,0.00,Rain,Light Rain,30,2012-09-28 19:10:00
3:51 PM,66.9,64.0,90,29.95,10.0,NE,12.7,-,0.00,,Overcast,40,2012-09-28 19:51:00
4:51 PM,69.1,64.0,84,29.93,10.0,NE,12.7,-,N/A,,Overcast,40,2012-09-28 20:51:00
5:51 PM,68.0,64.0,87,29.94,10.0,NNE,5.8,-,0.00,Rain,Light Rain,30,2012-09-28 21:51:00
6:15 PM,68.0,64.4,88,29.94,10.0,North,8.1,-,0.00,,Overcast,350,2012-09-28 22:15:00
6:51 PM,66.9,63.0,87,29.95,10.0,North,9.2,-,0.00,,Mostly Cloudy,10,2012-09-28 22:51:00
7:51 PM,66.9,62.1,84,29.95,10.0,NE,8.1,-,N/A,,Mostly Cloudy,50,2012-09-28 23:51:00
8:48 PM,66.2,60.8,83,29.95,10.0,North,8.1,-,N/A,,Overcast,10,2012-09-29 00:48:00
8:51 PM,66.0,61.0,84,29.96,10.0,North,8.1,-,N/A,,Overcast,10,2012-09-29 00:51:00
9:51 PM,66.0,61.0,84,29.95,10.0,North,11.5,17.3,N/A,,Overcast,10,2012-09-29 01:51:00
10:51 PM,63.0,60.1,90,29.95,10.0,NNE,8.1,-,N/A,,Overcast,20,2012-09-29 02:51:00
11:51 PM,62.1,59.0,90,29.94,10.0,NNW,8.1,-,N/A,,Overcast,330,2012-09-29 03:51:00